sensor_id;sensor_type;location;lat;lon;timestamp;noise_LAeq;noise_LA_min;noise_LA_max;noise_LA01;noise_LA95
67324;Laerm;57667;51.438;5.968;2022-09-01T00:00:11;31.94;29.96;38.20;;
67324;Laerm;57667;51.438;5.968;2022-09-01T00:00:23;53.60;31.44;67.91;;
67324;Laerm;57667;51.438;5.968;2022-09-01T00:00:38;71.94;68.83;77.04;;
67324;Laerm;57667;51.438;5.968;2022-09-01T00:00:51;70.46;57.89;74.19;;
67324;Laerm;57667;51.438;5.968;2022-09-01T00:01:01;54.48;47.76;59.84;;
67324;Laerm;57667;51.438;5.968;2022-09-01T00:01:13;47.63;43.33;52.29;;
67324;Laerm;57667;51.438;5.968;2022-09-01T00:01:28;41.80;37.50;47.38;;
67324;Laerm;57667;51.438;5.968;2022-09-01T00:01:40;37.61;35.34;39.62;;
67324;Laerm;57667;51.438;5.968;2022-09-01T00:01:51;36.11;33.46;41.18;;
67324;Laerm;57667;51.438;5.968;2022-09-01T00:02:02;35.67;33.87;40.72;;
67324;Laerm;57667;51.438;5.968;2022-09-01T00:02:17;34.64;32.15;38.73;;
67324;Laerm;57667;51.438;5.968;2022-09-01T00:02:28;34.12;32.29;45.34;;
67324;Laerm;57667;51.438;5.968;2022-09-01T00:02:39;34.45;31.86;37.73;;
67324;Laerm;57667;51.438;5.968;2022-09-01T00:02:49;33.78;31.67;36.77;;
67324;Laerm;57667;51.438;5.968;2022-09-01T00:03:00;32.69;30.72;34.35;;
67324;Laerm;57667;51.438;5.968;2022-09-01T00:03:10;32.04;30.86;33.21;;
67324;Laerm;57667;51.438;5.968;2022-09-01T00:03:22;32.33;30.93;33.98;;
67324;Laerm;57667;51.438;5.968;2022-09-01T00:03:33;32.69;31.03;37.24;;
67324;Laerm;57667;51.438;5.968;2022-09-01T00:03:47;32.75;31.44;33.86;;
67324;Laerm;57667;51.438;5.968;2022-09-01T00:03:58;32.25;30.71;33.94;;
67324;Laerm;57667;51.438;5.968;2022-09-01T00:04:14;32.07;30.66;34.50;;
67324;Laerm;57667;51.438;5.968;2022-09-01T00:04:24;32.26;30.70;36.35;;
67324;Laerm;57667;51.438;5.968;2022-09-01T00:04:36;31.77;30.48;37.08;;
67324;Laerm;57667;51.438;5.968;2022-09-01T00:04:50;31.73;30.24;35.61;;
67324;Laerm;57667;51.438;5.968;2022-09-01T00:05:02;33.10;30.06;49.00;;
67324;Laerm;57667;51.438;5.968;2022-09-01T00:05:13;31.29;29.89;33.70;;
67324;Laerm;57667;51.438;5.968;2022-09-01T00:05:24;31.66;29.93;33.46;;
67324;Laerm;57667;51.438;5.968;2022-09-01T00:05:34;31.38;30.18;32.70;;
67324;Laerm;57667;51.438;5.968;2022-09-01T00:05:45;31.66;30.37;32.84;;
67324;Laerm;57667;51.438;5.968;2022-09-01T00:05:59;31.74;29.82;34.01;;
67324;Laerm;57667;51.438;5.968;2022-09-01T00:06:10;32.42;30.25;35.52;;
67324;Laerm;57667;51.438;5.968;2022-09-01T00:06:21;33.62;30.70;37.70;;
67324;Laerm;57667;51.438;5.968;2022-09-01T00:06:33;34.29;31.16;39.18;;
67324;Laerm;57667;51.438;5.968;2022-09-01T00:06:43;34.93;30.75;39.15;;
67324;Laerm;57667;51.438;5.968;2022-09-01T00:06:54;34.71;31.61;38.95;;
67324;Laerm;57667;51.438;5.968;2022-09-01T00:07:05;34.11;31.47;38.38;;
67324;Laerm;57667;51.438;5.968;2022-09-01T00:07:15;35.24;31.11;46.38;;
67324;Laerm;57667;51.438;5.968;2022-09-01T00:07:26;33.82;31.74;36.38;;
67324;Laerm;57667;51.438;5.968;2022-09-01T00:07:39;33.29;30.49;36.58;;
67324;Laerm;57667;51.438;5.968;2022-09-01T00:07:49;32.93;30.83;36.09;;
67324;Laerm;57667;51.438;5.968;2022-09-01T00:08:00;32.30;30.36;37.59;;
67324;Laerm;57667;51.438;5.968;2022-09-01T00:08:13;31.84;29.84;34.20;;
67324;Laerm;57667;51.438;5.968;2022-09-01T00:08:23;31.61;29.72;34.43;;
67324;Laerm;57667;51.438;5.968;2022-09-01T00:08:34;31.80;30.19;33.50;;
67324;Laerm;57667;51.438;5.968;2022-09-01T00:08:45;31.45;30.16;33.11;;
67324;Laerm;57667;51.438;5.968;2022-09-01T00:08:56;31.44;30.23;32.85;;
67324;Laerm;57667;51.438;5.968;2022-09-01T00:09:07;30.98;29.44;32.55;;
67324;Laerm;57667;51.438;5.968;2022-09-01T00:09:19;31.19;29.80;32.40;;
67324;Laerm;57667;51.438;5.968;2022-09-01T00:09:30;31.13;29.74;32.63;;
67324;Laerm;57667;51.438;5.968;2022-09-01T00:09:40;31.62;29.94;33.51;;
67324;Laerm;57667;51.438;5.968;2022-09-01T00:09:50;32.78;30.65;42.82;;
67324;Laerm;57667;51.438;5.968;2022-09-01T00:10:03;31.19;29.93;32.63;;
67324;Laerm;57667;51.438;5.968;2022-09-01T00:10:14;31.63;30.09;33.47;;
67324;Laerm;57667;51.438;5.968;2022-09-01T00:10:25;39.85;31.75;48.05;;
67324;Laerm;57667;51.438;5.968;2022-09-01T00:10:35;72.88;46.73;77.86;;
67324;Laerm;57667;51.438;5.968;2022-09-01T00:10:46;73.29;68.61;78.75;;
67324;Laerm;57667;51.438;5.968;2022-09-01T00:10:56;60.65;51.83;69.89;;
67324;Laerm;57667;51.438;5.968;2022-09-01T00:11:07;50.44;44.71;58.80;;
67324;Laerm;57667;51.438;5.968;2022-09-01T00:11:18;46.29;41.60;53.77;;
67324;Laerm;57667;51.438;5.968;2022-09-01T00:11:28;41.03;36.11;47.19;;
67324;Laerm;57667;51.438;5.968;2022-09-01T00:11:40;37.11;33.99;39.35;;
67324;Laerm;57667;51.438;5.968;2022-09-01T00:11:53;37.43;34.81;40.27;;
67324;Laerm;57667;51.438;5.968;2022-09-01T00:12:05;36.50;33.41;40.07;;
67324;Laerm;57667;51.438;5.968;2022-09-01T00:12:16;35.59;32.81;38.97;;
67324;Laerm;57667;51.438;5.968;2022-09-01T00:12:26;37.07;33.68;39.60;;
67324;Laerm;57667;51.438;5.968;2022-09-01T00:12:37;35.12;32.44;37.36;;
67324;Laerm;57667;51.438;5.968;2022-09-01T00:12:48;38.19;34.13;42.23;;
67324;Laerm;57667;51.438;5.968;2022-09-01T00:12:58;35.44;31.79;40.48;;
67324;Laerm;57667;51.438;5.968;2022-09-01T00:13:09;33.41;31.42;40.73;;
67324;Laerm;57667;51.438;5.968;2022-09-01T00:13:19;31.80;30.24;35.08;;
67324;Laerm;57667;51.438;5.968;2022-09-01T00:13:29;31.80;30.05;35.22;;
67324;Laerm;57667;51.438;5.968;2022-09-01T00:13:42;31.70;30.10;34.96;;
67324;Laerm;57667;51.438;5.968;2022-09-01T00:13:53;31.31;29.78;33.42;;
67324;Laerm;57667;51.438;5.968;2022-09-01T00:14:05;31.20;29.57;33.23;;
67324;Laerm;57667;51.438;5.968;2022-09-01T00:14:16;31.86;29.81;33.91;;
67324;Laerm;57667;51.438;5.968;2022-09-01T00:14:29;33.07;31.54;35.21;;
67324;Laerm;57667;51.438;5.968;2022-09-01T00:14:40;33.00;31.62;34.62;;
67324;Laerm;57667;51.438;5.968;2022-09-01T00:14:51;32.24;30.81;33.56;;
67324;Laerm;57667;51.438;5.968;2022-09-01T00:15:02;31.89;30.47;33.94;;
67324;Laerm;57667;51.438;5.968;2022-09-01T00:15:13;31.96;30.69;33.31;;
67324;Laerm;57667;51.438;5.968;2022-09-01T00:15:23;33.35;31.39;35.15;;
67324;Laerm;57667;51.438;5.968;2022-09-01T00:15:34;34.13;32.32;35.39;;
67324;Laerm;57667;51.438;5.968;2022-09-01T00:15:45;32.81;31.20;35.27;;
67324;Laerm;57667;51.438;5.968;2022-09-01T00:15:55;32.52;30.97;34.82;;
67324;Laerm;57667;51.438;5.968;2022-09-01T00:16:06;32.04;30.81;34.24;;
67324;Laerm;57667;51.438;5.968;2022-09-01T00:16:16;31.84;30.56;33.37;;
67324;Laerm;57667;51.438;5.968;2022-09-01T00:16:28;31.90;30.31;33.58;;
67324;Laerm;57667;51.438;5.968;2022-09-01T00:16:39;31.76;30.48;33.52;;
67324;Laerm;57667;51.438;5.968;2022-09-01T00:16:50;32.24;30.52;34.21;;
67324;Laerm;57667;51.438;5.968;2022-09-01T00:17:03;32.24;31.09;33.80;;
67324;Laerm;57667;51.438;5.968;2022-09-01T00:17:14;33.81;31.17;37.34;;
67324;Laerm;57667;51.438;5.968;2022-09-01T00:17:24;32.89;31.12;41.98;;
67324;Laerm;57667;51.438;5.968;2022-09-01T00:17:34;32.51;30.80;34.53;;
67324;Laerm;57667;51.438;5.968;2022-09-01T00:17:45;32.08;30.33;33.80;;
67324;Laerm;57667;51.438;5.968;2022-09-01T00:17:55;31.68;30.46;33.00;;
67324;Laerm;57667;51.438;5.968;2022-09-01T00:18:06;31.93;30.46;33.34;;
67324;Laerm;57667;51.438;5.968;2022-09-01T00:18:16;31.64;30.52;32.88;;
67324;Laerm;57667;51.438;5.968;2022-09-01T00:18:27;32.38;30.73;33.58;;
67324;Laerm;57667;51.438;5.968;2022-09-01T00:18:37;31.80;30.27;33.52;;
67324;Laerm;57667;51.438;5.968;2022-09-01T00:18:48;31.60;29.94;32.88;;
67324;Laerm;57667;51.438;5.968;2022-09-01T00:18:59;32.27;31.01;34.38;;
67324;Laerm;57667;51.438;5.968;2022-09-01T00:19:09;32.19;31.06;33.39;;
67324;Laerm;57667;51.438;5.968;2022-09-01T00:19:21;31.93;30.29;33.35;;
67324;Laerm;57667;51.438;5.968;2022-09-01T00:19:31;31.64;30.36;33.14;;
67324;Laerm;57667;51.438;5.968;2022-09-01T00:19:42;31.34;30.05;33.15;;
67324;Laerm;57667;51.438;5.968;2022-09-01T00:19:53;31.88;30.22;33.18;;
67324;Laerm;57667;51.438;5.968;2022-09-01T00:20:04;31.67;30.50;33.10;;
67324;Laerm;57667;51.438;5.968;2022-09-01T00:20:15;31.68;30.24;33.25;;
67324;Laerm;57667;51.438;5.968;2022-09-01T00:20:25;32.06;30.41;35.47;;
67324;Laerm;57667;51.438;5.968;2022-09-01T00:20:36;40.23;31.77;48.29;;
67324;Laerm;57667;51.438;5.968;2022-09-01T00:20:46;70.26;46.94;74.93;;
67324;Laerm;57667;51.438;5.968;2022-09-01T00:20:57;68.92;66.20;71.56;;
67324;Laerm;57667;51.438;5.968;2022-09-01T00:21:08;68.00;55.68;73.39;;
67324;Laerm;57667;51.438;5.968;2022-09-01T00:21:21;52.44;47.27;57.33;;
67324;Laerm;57667;51.438;5.968;2022-09-01T00:21:39;47.56;42.87;54.64;;
67324;Laerm;57667;51.438;5.968;2022-09-01T00:21:49;42.74;37.22;48.03;;
67324;Laerm;57667;51.438;5.968;2022-09-01T00:22:00;37.86;34.99;40.41;;
67324;Laerm;57667;51.438;5.968;2022-09-01T00:22:11;36.47;34.10;44.04;;
67324;Laerm;57667;51.438;5.968;2022-09-01T00:22:21;35.38;33.66;37.96;;
67324;Laerm;57667;51.438;5.968;2022-09-01T00:22:31;37.23;34.51;41.27;;
67324;Laerm;57667;51.438;5.968;2022-09-01T00:22:42;35.24;32.30;40.54;;
67324;Laerm;57667;51.438;5.968;2022-09-01T00:22:53;34.90;32.60;39.44;;
67324;Laerm;57667;51.438;5.968;2022-09-01T00:23:04;34.82;31.82;38.57;;
67324;Laerm;57667;51.438;5.968;2022-09-01T00:23:14;33.10;31.33;36.95;;
67324;Laerm;57667;51.438;5.968;2022-09-01T00:23:26;32.68;31.43;34.26;;
67324;Laerm;57667;51.438;5.968;2022-09-01T00:23:36;32.25;30.84;34.45;;
67324;Laerm;57667;51.438;5.968;2022-09-01T00:23:46;32.79;31.61;34.32;;
67324;Laerm;57667;51.438;5.968;2022-09-01T00:23:58;32.66;30.84;34.28;;
67324;Laerm;57667;51.438;5.968;2022-09-01T00:24:09;32.81;30.85;35.32;;
67324;Laerm;57667;51.438;5.968;2022-09-01T00:24:20;32.85;30.56;34.87;;
67324;Laerm;57667;51.438;5.968;2022-09-01T00:24:30;32.92;31.12;34.50;;
67324;Laerm;57667;51.438;5.968;2022-09-01T00:24:41;33.23;31.09;35.90;;
67324;Laerm;57667;51.438;5.968;2022-09-01T00:24:51;31.73;29.99;33.83;;
67324;Laerm;57667;51.438;5.968;2022-09-01T00:25:02;31.37;29.91;33.17;;
67324;Laerm;57667;51.438;5.968;2022-09-01T00:25:12;31.39;30.03;33.07;;
67324;Laerm;57667;51.438;5.968;2022-09-01T00:25:23;31.37;29.96;33.02;;
67324;Laerm;57667;51.438;5.968;2022-09-01T00:25:33;32.77;30.69;41.78;;
67324;Laerm;57667;51.438;5.968;2022-09-01T00:25:44;33.83;32.78;34.98;;
67324;Laerm;57667;51.438;5.968;2022-09-01T00:25:54;32.63;30.43;34.59;;
67324;Laerm;57667;51.438;5.968;2022-09-01T00:26:04;32.63;30.21;36.17;;
67324;Laerm;57667;51.438;5.968;2022-09-01T00:26:15;31.34;29.71;33.48;;
67324;Laerm;57667;51.438;5.968;2022-09-01T00:26:25;31.85;30.00;34.86;;
67324;Laerm;57667;51.438;5.968;2022-09-01T00:26:36;33.24;30.62;35.87;;
67324;Laerm;57667;51.438;5.968;2022-09-01T00:26:47;31.64;30.23;34.73;;
67324;Laerm;57667;51.438;5.968;2022-09-01T00:26:57;34.73;29.96;43.30;;
67324;Laerm;57667;51.438;5.968;2022-09-01T00:27:08;32.54;30.07;40.91;;
67324;Laerm;57667;51.438;5.968;2022-09-01T00:27:18;31.54;30.18;32.97;;
67324;Laerm;57667;51.438;5.968;2022-09-01T00:27:29;32.60;29.78;41.68;;
67324;Laerm;57667;51.438;5.968;2022-09-01T00:27:40;31.50;29.96;34.52;;
67324;Laerm;57667;51.438;5.968;2022-09-01T00:27:50;31.71;30.15;33.42;;
67324;Laerm;57667;51.438;5.968;2022-09-01T00:28:00;32.04;30.48;34.64;;
67324;Laerm;57667;51.438;5.968;2022-09-01T00:28:13;30.88;29.06;32.49;;
67324;Laerm;57667;51.438;5.968;2022-09-01T00:28:24;30.75;29.33;32.39;;
67324;Laerm;57667;51.438;5.968;2022-09-01T00:28:35;30.69;29.13;36.88;;
67324;Laerm;57667;51.438;5.968;2022-09-01T00:28:45;31.06;29.61;32.80;;
67324;Laerm;57667;51.438;5.968;2022-09-01T00:28:55;31.31;29.93;33.18;;
67324;Laerm;57667;51.438;5.968;2022-09-01T00:29:06;31.20;29.56;38.08;;
67324;Laerm;57667;51.438;5.968;2022-09-01T00:29:17;31.75;30.02;34.32;;
67324;Laerm;57667;51.438;5.968;2022-09-01T00:29:27;30.92;29.24;33.37;;
67324;Laerm;57667;51.438;5.968;2022-09-01T00:29:37;31.00;29.69;32.47;;
67324;Laerm;57667;51.438;5.968;2022-09-01T00:29:47;31.01;29.72;32.85;;
67324;Laerm;57667;51.438;5.968;2022-09-01T00:29:58;31.17;29.77;32.59;;
67324;Laerm;57667;51.438;5.968;2022-09-01T00:30:09;31.03;29.40;32.21;;
67324;Laerm;57667;51.438;5.968;2022-09-01T00:30:20;31.14;29.76;32.95;;
67324;Laerm;57667;51.438;5.968;2022-09-01T00:30:30;31.93;30.44;33.86;;
67324;Laerm;57667;51.438;5.968;2022-09-01T00:30:41;33.16;31.08;35.65;;
67324;Laerm;57667;51.438;5.968;2022-09-01T00:30:51;46.02;33.92;56.83;;
67324;Laerm;57667;51.438;5.968;2022-09-01T00:31:02;74.32;56.34;81.86;;
67324;Laerm;57667;51.438;5.968;2022-09-01T00:31:15;72.58;70.00;75.73;;
67324;Laerm;57667;51.438;5.968;2022-09-01T00:31:26;66.99;53.11;74.56;;
67324;Laerm;57667;51.438;5.968;2022-09-01T00:31:37;51.32;46.48;59.90;;
67324;Laerm;57667;51.438;5.968;2022-09-01T00:31:47;45.74;41.93;51.71;;
67324;Laerm;57667;51.438;5.968;2022-09-01T00:31:58;41.70;36.77;45.69;;
67324;Laerm;57667;51.438;5.968;2022-09-01T00:32:08;39.41;37.15;42.65;;
67324;Laerm;57667;51.438;5.968;2022-09-01T00:32:19;37.77;34.32;40.84;;
67324;Laerm;57667;51.438;5.968;2022-09-01T00:32:29;37.68;34.62;40.29;;
67324;Laerm;57667;51.438;5.968;2022-09-01T00:32:39;39.50;35.81;43.43;;
67324;Laerm;57667;51.438;5.968;2022-09-01T00:32:55;37.15;34.74;39.26;;
67324;Laerm;57667;51.438;5.968;2022-09-01T00:33:05;37.88;34.96;40.83;;
67324;Laerm;57667;51.438;5.968;2022-09-01T00:33:17;37.25;34.50;42.25;;
67324;Laerm;57667;51.438;5.968;2022-09-01T00:33:27;37.53;35.75;39.58;;
67324;Laerm;57667;51.438;5.968;2022-09-01T00:33:37;37.31;34.70;38.87;;
67324;Laerm;57667;51.438;5.968;2022-09-01T00:33:48;41.39;36.88;45.06;;
67324;Laerm;57667;51.438;5.968;2022-09-01T00:33:59;47.76;42.39;51.66;;
67324;Laerm;57667;51.438;5.968;2022-09-01T00:34:10;71.70;49.75;80.05;;
67324;Laerm;57667;51.438;5.968;2022-09-01T00:34:20;77.19;73.97;80.40;;
67324;Laerm;57667;51.438;5.968;2022-09-01T00:34:30;75.68;73.21;78.92;;
67324;Laerm;57667;51.438;5.968;2022-09-01T00:34:41;61.85;40.65;73.46;;
67324;Laerm;57667;51.438;5.968;2022-09-01T00:34:51;38.96;34.66;44.91;;
67324;Laerm;57667;51.438;5.968;2022-09-01T00:35:01;34.98;33.09;42.91;;
67324;Laerm;57667;51.438;5.968;2022-09-01T00:35:13;33.43;31.98;34.68;;
67324;Laerm;57667;51.438;5.968;2022-09-01T00:35:24;32.45;30.81;34.04;;
67324;Laerm;57667;51.438;5.968;2022-09-01T00:35:34;32.29;30.77;33.99;;
67324;Laerm;57667;51.438;5.968;2022-09-01T00:35:45;33.00;30.79;35.09;;
67324;Laerm;57667;51.438;5.968;2022-09-01T00:35:55;33.52;31.31;35.53;;
67324;Laerm;57667;51.438;5.968;2022-09-01T00:36:05;33.80;31.82;35.90;;
67324;Laerm;57667;51.438;5.968;2022-09-01T00:36:16;34.02;32.45;36.13;;
67324;Laerm;57667;51.438;5.968;2022-09-01T00:36:27;34.47;32.21;36.72;;
67324;Laerm;57667;51.438;5.968;2022-09-01T00:36:37;33.34;31.23;35.43;;
67324;Laerm;57667;51.438;5.968;2022-09-01T00:36:47;32.16;30.79;34.25;;
67324;Laerm;57667;51.438;5.968;2022-09-01T00:36:58;32.93;31.39;36.63;;
67324;Laerm;57667;51.438;5.968;2022-09-01T00:37:08;33.09;31.62;34.34;;
67324;Laerm;57667;51.438;5.968;2022-09-01T00:37:18;33.84;31.44;40.69;;
67324;Laerm;57667;51.438;5.968;2022-09-01T00:37:29;34.52;32.82;36.03;;
67324;Laerm;57667;51.438;5.968;2022-09-01T00:37:39;33.42;31.45;38.96;;
67324;Laerm;57667;51.438;5.968;2022-09-01T00:37:49;33.56;31.21;48.11;;
67324;Laerm;57667;51.438;5.968;2022-09-01T00:38:00;38.17;32.22;44.09;;
67324;Laerm;57667;51.438;5.968;2022-09-01T00:38:10;72.96;43.09;79.74;;
67324;Laerm;57667;51.438;5.968;2022-09-01T00:38:20;71.55;69.75;73.92;;
67324;Laerm;57667;51.438;5.968;2022-09-01T00:38:31;70.24;57.78;74.60;;
67324;Laerm;57667;51.438;5.968;2022-09-01T00:38:42;53.56;47.28;59.34;;
67324;Laerm;57667;51.438;5.968;2022-09-01T00:38:52;46.91;41.36;53.13;;
67324;Laerm;57667;51.438;5.968;2022-09-01T00:39:03;44.01;40.05;47.66;;
67324;Laerm;57667;51.438;5.968;2022-09-01T00:39:14;38.69;35.71;43.40;;
67324;Laerm;57667;51.438;5.968;2022-09-01T00:39:24;39.01;35.35;42.70;;
67324;Laerm;57667;51.438;5.968;2022-09-01T00:39:35;37.30;33.79;41.96;;
67324;Laerm;57667;51.438;5.968;2022-09-01T00:39:45;35.78;33.18;38.62;;
67324;Laerm;57667;51.438;5.968;2022-09-01T00:39:55;35.24;32.39;38.68;;
67324;Laerm;57667;51.438;5.968;2022-09-01T00:40:06;34.64;32.60;39.71;;
67324;Laerm;57667;51.438;5.968;2022-09-01T00:40:17;34.69;32.28;46.31;;
67324;Laerm;57667;51.438;5.968;2022-09-01T00:40:28;34.22;31.95;49.45;;
67324;Laerm;57667;51.438;5.968;2022-09-01T00:40:38;34.30;31.11;52.73;;
67324;Laerm;57667;51.438;5.968;2022-09-01T00:40:48;33.44;31.80;34.70;;
67324;Laerm;57667;51.438;5.968;2022-09-01T00:40:59;33.49;31.37;47.03;;
67324;Laerm;57667;51.438;5.968;2022-09-01T00:41:09;32.52;30.86;35.02;;
67324;Laerm;57667;51.438;5.968;2022-09-01T00:41:22;32.64;30.99;34.13;;
67324;Laerm;57667;51.438;5.968;2022-09-01T00:41:34;32.48;30.63;34.06;;
67324;Laerm;57667;51.438;5.968;2022-09-01T00:41:47;32.27;30.72;33.76;;
67324;Laerm;57667;51.438;5.968;2022-09-01T00:41:59;32.74;31.24;34.53;;
67324;Laerm;57667;51.438;5.968;2022-09-01T00:42:10;32.06;30.54;33.66;;
67324;Laerm;57667;51.438;5.968;2022-09-01T00:42:20;32.01;30.61;34.16;;
67324;Laerm;57667;51.438;5.968;2022-09-01T00:42:30;32.00;30.36;33.69;;
67324;Laerm;57667;51.438;5.968;2022-09-01T00:42:41;32.03;30.29;34.72;;
67324;Laerm;57667;51.438;5.968;2022-09-01T00:42:53;32.47;30.48;34.91;;
67324;Laerm;57667;51.438;5.968;2022-09-01T00:43:10;32.37;31.26;33.84;;
67324;Laerm;57667;51.438;5.968;2022-09-01T00:43:35;33.20;31.07;35.20;;
67324;Laerm;57667;51.438;5.968;2022-09-01T00:43:47;32.15;30.18;34.55;;
67324;Laerm;57667;51.438;5.968;2022-09-01T00:44:02;32.38;30.79;35.27;;
67324;Laerm;57667;51.438;5.968;2022-09-01T00:44:15;32.50;29.86;36.21;;
67324;Laerm;57667;51.438;5.968;2022-09-01T00:44:26;33.79;30.86;49.30;;
67324;Laerm;57667;51.438;5.968;2022-09-01T00:44:36;32.72;31.20;34.75;;
67324;Laerm;57667;51.438;5.968;2022-09-01T00:44:47;31.67;30.35;33.57;;
67324;Laerm;57667;51.438;5.968;2022-09-01T00:44:58;31.78;30.07;33.62;;
67324;Laerm;57667;51.438;5.968;2022-09-01T00:45:08;32.04;29.95;33.84;;
67324;Laerm;57667;51.438;5.968;2022-09-01T00:45:19;33.08;30.99;35.21;;
67324;Laerm;57667;51.438;5.968;2022-09-01T00:45:30;56.51;33.12;69.50;;
67324;Laerm;57667;51.438;5.968;2022-09-01T00:45:41;71.59;68.44;78.95;;
67324;Laerm;57667;51.438;5.968;2022-09-01T00:45:51;72.48;68.05;78.29;;
67324;Laerm;57667;51.438;5.968;2022-09-01T00:46:03;60.27;49.74;68.68;;
67324;Laerm;57667;51.438;5.968;2022-09-01T00:46:24;48.40;43.78;53.35;;
67324;Laerm;57667;51.438;5.968;2022-09-01T00:46:35;41.48;36.53;47.83;;
67324;Laerm;57667;51.438;5.968;2022-09-01T00:46:47;37.86;35.28;40.60;;
67324;Laerm;57667;51.438;5.968;2022-09-01T00:47:01;36.17;33.15;39.76;;
67324;Laerm;57667;51.438;5.968;2022-09-01T00:47:12;35.83;33.47;39.11;;
67324;Laerm;57667;51.438;5.968;2022-09-01T00:47:23;35.03;32.28;37.17;;
67324;Laerm;57667;51.438;5.968;2022-09-01T00:47:33;36.25;33.48;40.22;;
67324;Laerm;57667;51.438;5.968;2022-09-01T00:47:44;34.64;32.25;37.66;;
67324;Laerm;57667;51.438;5.968;2022-09-01T00:47:55;33.65;31.75;35.50;;
67324;Laerm;57667;51.438;5.968;2022-09-01T00:48:05;33.18;30.64;35.09;;
67324;Laerm;57667;51.438;5.968;2022-09-01T00:48:16;33.51;31.12;36.65;;
67324;Laerm;57667;51.438;5.968;2022-09-01T00:48:29;33.06;31.03;35.93;;
67324;Laerm;57667;51.438;5.968;2022-09-01T00:48:40;32.42;30.50;34.16;;
67324;Laerm;57667;51.438;5.968;2022-09-01T00:48:52;32.62;30.52;35.32;;
67324;Laerm;57667;51.438;5.968;2022-09-01T00:49:05;32.87;30.91;35.70;;
67324;Laerm;57667;51.438;5.968;2022-09-01T00:49:31;33.40;31.49;41.55;;
67324;Laerm;57667;51.438;5.968;2022-09-01T00:49:45;34.04;31.32;37.40;;
67324;Laerm;57667;51.438;5.968;2022-09-01T00:49:56;33.22;30.94;36.50;;
67324;Laerm;57667;51.438;5.968;2022-09-01T00:50:07;33.32;31.23;35.78;;
67324;Laerm;57667;51.438;5.968;2022-09-01T00:50:18;35.18;31.97;41.28;;
67324;Laerm;57667;51.438;5.968;2022-09-01T00:50:29;35.95;32.77;39.46;;
67324;Laerm;57667;51.438;5.968;2022-09-01T00:50:39;34.94;32.30;38.26;;
67324;Laerm;57667;51.438;5.968;2022-09-01T00:50:50;33.88;31.76;36.56;;
67324;Laerm;57667;51.438;5.968;2022-09-01T00:51:01;32.73;30.76;34.62;;
67324;Laerm;57667;51.438;5.968;2022-09-01T00:51:12;32.56;30.81;34.67;;
67324;Laerm;57667;51.438;5.968;2022-09-01T00:51:22;33.03;30.59;35.73;;
67324;Laerm;57667;51.438;5.968;2022-09-01T00:51:33;33.69;30.73;37.02;;
67324;Laerm;57667;51.438;5.968;2022-09-01T00:51:48;33.22;30.82;37.52;;
67324;Laerm;57667;51.438;5.968;2022-09-01T00:52:04;33.55;30.54;36.66;;
67324;Laerm;57667;51.438;5.968;2022-09-01T00:52:33;33.96;31.10;37.34;;
67324;Laerm;57667;51.438;5.968;2022-09-01T00:52:49;33.62;31.59;35.80;;
67324;Laerm;57667;51.438;5.968;2022-09-01T00:53:00;33.13;30.93;35.95;;
67324;Laerm;57667;51.438;5.968;2022-09-01T00:53:11;33.02;31.05;36.73;;
67324;Laerm;57667;51.438;5.968;2022-09-01T00:53:21;33.14;31.28;34.84;;
67324;Laerm;57667;51.438;5.968;2022-09-01T00:53:32;33.74;31.66;35.73;;
67324;Laerm;57667;51.438;5.968;2022-09-01T00:53:43;33.17;31.07;34.80;;
67324;Laerm;57667;51.438;5.968;2022-09-01T00:53:55;33.48;31.63;35.58;;
67324;Laerm;57667;51.438;5.968;2022-09-01T00:54:06;32.80;30.24;34.71;;
67324;Laerm;57667;51.438;5.968;2022-09-01T00:54:19;32.23;30.11;34.14;;
67324;Laerm;57667;51.438;5.968;2022-09-01T00:54:32;32.39;30.15;34.52;;
67324;Laerm;57667;51.438;5.968;2022-09-01T00:54:44;32.03;30.44;34.62;;
67324;Laerm;57667;51.438;5.968;2022-09-01T00:54:56;32.74;30.26;39.58;;
67324;Laerm;57667;51.438;5.968;2022-09-01T00:55:09;31.75;30.34;33.40;;
67324;Laerm;57667;51.438;5.968;2022-09-01T00:55:22;32.67;30.47;35.18;;
67324;Laerm;57667;51.438;5.968;2022-09-01T00:55:35;31.67;29.91;33.25;;
67324;Laerm;57667;51.438;5.968;2022-09-01T00:55:46;32.33;30.74;34.82;;
67324;Laerm;57667;51.438;5.968;2022-09-01T00:55:57;32.49;30.49;34.27;;
67324;Laerm;57667;51.438;5.968;2022-09-01T00:56:07;32.26;30.46;33.88;;
67324;Laerm;57667;51.438;5.968;2022-09-01T00:56:18;32.61;30.96;34.29;;
67324;Laerm;57667;51.438;5.968;2022-09-01T00:56:28;32.17;30.84;33.90;;
67324;Laerm;57667;51.438;5.968;2022-09-01T00:56:40;32.29;30.53;42.92;;
67324;Laerm;57667;51.438;5.968;2022-09-01T00:56:51;31.95;30.36;33.95;;
67324;Laerm;57667;51.438;5.968;2022-09-01T00:57:02;32.45;30.85;33.99;;
67324;Laerm;57667;51.438;5.968;2022-09-01T00:57:13;33.48;31.92;35.84;;
67324;Laerm;57667;51.438;5.968;2022-09-01T00:57:24;33.21;31.34;35.87;;
67324;Laerm;57667;51.438;5.968;2022-09-01T00:57:34;32.13;30.18;34.86;;
67324;Laerm;57667;51.438;5.968;2022-09-01T00:57:45;32.21;30.00;34.22;;
67324;Laerm;57667;51.438;5.968;2022-09-01T00:57:55;31.99;30.21;33.75;;
67324;Laerm;57667;51.438;5.968;2022-09-01T00:58:08;33.01;31.30;35.38;;
67324;Laerm;57667;51.438;5.968;2022-09-01T00:58:18;32.19;30.69;33.81;;
67324;Laerm;57667;51.438;5.968;2022-09-01T00:58:29;32.34;30.51;33.76;;
67324;Laerm;57667;51.438;5.968;2022-09-01T00:58:40;32.45;30.89;34.06;;
67324;Laerm;57667;51.438;5.968;2022-09-01T00:58:51;32.58;31.21;33.80;;
67324;Laerm;57667;51.438;5.968;2022-09-01T00:59:02;32.91;31.41;34.89;;
67324;Laerm;57667;51.438;5.968;2022-09-01T00:59:16;32.95;30.89;35.77;;
67324;Laerm;57667;51.438;5.968;2022-09-01T00:59:27;32.24;30.46;34.36;;
67324;Laerm;57667;51.438;5.968;2022-09-01T00:59:41;33.69;30.63;42.40;;
67324;Laerm;57667;51.438;5.968;2022-09-01T00:59:56;34.84;30.51;45.45;;
67324;Laerm;57667;51.438;5.968;2022-09-01T01:00:10;32.77;30.50;40.00;;
67324;Laerm;57667;51.438;5.968;2022-09-01T01:00:23;34.69;31.49;45.44;;
67324;Laerm;57667;51.438;5.968;2022-09-01T01:00:34;34.11;30.98;51.41;;
67324;Laerm;57667;51.438;5.968;2022-09-01T01:00:50;34.78;31.94;45.55;;
67324;Laerm;57667;51.438;5.968;2022-09-01T01:01:02;35.30;32.07;40.15;;
67324;Laerm;57667;51.438;5.968;2022-09-01T01:01:15;36.37;33.96;38.97;;
67324;Laerm;57667;51.438;5.968;2022-09-01T01:01:25;49.23;35.92;62.15;;
67324;Laerm;57667;51.438;5.968;2022-09-01T01:01:36;75.06;62.05;79.36;;
67324;Laerm;57667;51.438;5.968;2022-09-01T01:01:46;74.58;66.57;79.87;;
67324;Laerm;57667;51.438;5.968;2022-09-01T01:01:57;65.91;56.85;76.11;;
67324;Laerm;57667;51.438;5.968;2022-09-01T01:02:08;77.76;74.03;82.09;;
67324;Laerm;57667;51.438;5.968;2022-09-01T01:02:19;77.58;57.53;82.32;;
67324;Laerm;57667;51.438;5.968;2022-09-01T01:02:31;49.62;41.02;58.55;;
67324;Laerm;57667;51.438;5.968;2022-09-01T01:02:42;40.97;38.73;43.43;;
67324;Laerm;57667;51.438;5.968;2022-09-01T01:02:53;40.36;37.34;44.47;;
67324;Laerm;57667;51.438;5.968;2022-09-01T01:03:10;39.30;36.34;43.01;;
67324;Laerm;57667;51.438;5.968;2022-09-01T01:03:21;37.88;34.65;41.24;;
67324;Laerm;57667;51.438;5.968;2022-09-01T01:03:33;36.38;33.64;40.12;;
67324;Laerm;57667;51.438;5.968;2022-09-01T01:03:43;34.23;32.14;36.69;;